Terminal Aerodrome Forecast
Issued by NWS

Home | Current Version | Previous Version | Text Only | Print | Product List | Glossary On
Versions: 1 2 3 4 5 6 7 8 9 10 11 12 13 14 15 16 17 18 19 20 21 22 23 24 25 26 27 28 29 30 31 32 33 34 35 36 37 38 39 40 41 42 43 44 45 46 47 48 49 50
947
FTAK31 PANC 170529
TAFAHO
TAF
PAHO 170529Z 1706/1806 24020G30KT 1/2SM SHSN BLSN BKN015
      TEMPO 1706/1709 1 1/2SM -SHSN BLSN
     FM170900 25015G22KT 1 1/2SM -SHSN BLSN BKN018
     FM171200 27012KT 4SM -SHSN SCT020 BKN030
     FM171500 32007KT P6SM VCSH SCT025 BKN045
     FM171800 04005KT P6SM SCT045=

USA.gov is the U.S. government's official web portal to all federal, state and local government web resources and services.